sensor_id;sensor_type;location;lat;lon;timestamp;P1;durP1;ratioP1;P2;durP2;ratioP2
11054;SDS011;5580;50.106;8.702;2022-10-04T00:04:28;21.00;;;11.17;;
11054;SDS011;5580;50.106;8.702;2022-10-04T00:15:00;23.40;;;12.07;;
11054;SDS011;5580;50.106;8.702;2022-10-04T00:17:29;19.23;;;11.13;;
11054;SDS011;5580;50.106;8.702;2022-10-04T00:20:00;18.67;;;11.23;;
11054;SDS011;5580;50.106;8.702;2022-10-04T00:22:31;20.30;;;11.80;;
11054;SDS011;5580;50.106;8.702;2022-10-04T00:28:13;18.60;;;11.37;;
11054;SDS011;5580;50.106;8.702;2022-10-04T00:30:41;21.53;;;11.43;;
11054;SDS011;5580;50.106;8.702;2022-10-04T00:33:06;20.83;;;11.87;;
11054;SDS011;5580;50.106;8.702;2022-10-04T00:40:51;22.57;;;12.47;;
11054;SDS011;5580;50.106;8.702;2022-10-04T00:43:28;20.77;;;11.70;;
11054;SDS011;5580;50.106;8.702;2022-10-04T00:46:12;19.07;;;11.33;;
11054;SDS011;5580;50.106;8.702;2022-10-04T00:51:30;18.53;;;10.30;;
11054;SDS011;5580;50.106;8.702;2022-10-04T00:57:14;18.10;;;10.47;;
11054;SDS011;5580;50.106;8.702;2022-10-04T00:59:46;21.70;;;11.27;;
11054;SDS011;5580;50.106;8.702;2022-10-04T01:02:19;19.77;;;11.40;;
11054;SDS011;5580;50.106;8.702;2022-10-04T01:04:54;20.77;;;12.33;;
11054;SDS011;5580;50.106;8.702;2022-10-04T01:07:32;23.67;;;11.90;;
11054;SDS011;5580;50.106;8.702;2022-10-04T01:10:06;19.57;;;11.57;;
11054;SDS011;5580;50.106;8.702;2022-10-04T01:20:57;19.93;;;11.17;;
11054;SDS011;5580;50.106;8.702;2022-10-04T01:23:46;18.50;;;11.67;;
11054;SDS011;5580;50.106;8.702;2022-10-04T01:28:54;20.70;;;12.13;;
11054;SDS011;5580;50.106;8.702;2022-10-04T01:31:20;20.27;;;11.57;;
11054;SDS011;5580;50.106;8.702;2022-10-04T01:33:47;22.23;;;12.10;;
11054;SDS011;5580;50.106;8.702;2022-10-04T01:36:12;21.63;;;11.23;;
11054;SDS011;5580;50.106;8.702;2022-10-04T01:38:38;19.20;;;10.87;;
11054;SDS011;5580;50.106;8.702;2022-10-04T01:41:03;19.60;;;11.90;;
11054;SDS011;5580;50.106;8.702;2022-10-04T01:43:33;18.17;;;11.10;;
11054;SDS011;5580;50.106;8.702;2022-10-04T01:46:10;20.50;;;11.70;;
11054;SDS011;5580;50.106;8.702;2022-10-04T01:48:40;21.73;;;12.63;;
11054;SDS011;5580;50.106;8.702;2022-10-04T01:53:48;25.13;;;13.60;;
11054;SDS011;5580;50.106;8.702;2022-10-04T01:56:20;21.43;;;13.97;;
11054;SDS011;5580;50.106;8.702;2022-10-04T01:58:50;22.63;;;13.17;;
11054;SDS011;5580;50.106;8.702;2022-10-04T02:01:26;22.37;;;13.13;;
11054;SDS011;5580;50.106;8.702;2022-10-04T02:04:01;25.43;;;13.13;;
11054;SDS011;5580;50.106;8.702;2022-10-04T02:06:43;24.33;;;12.80;;
11054;SDS011;5580;50.106;8.702;2022-10-04T02:09:13;23.23;;;12.97;;
11054;SDS011;5580;50.106;8.702;2022-10-04T02:11:43;22.70;;;12.50;;
11054;SDS011;5580;50.106;8.702;2022-10-04T02:14:12;22.50;;;13.33;;
11054;SDS011;5580;50.106;8.702;2022-10-04T02:16:40;25.20;;;12.67;;
11054;SDS011;5580;50.106;8.702;2022-10-04T02:19:08;35.40;;;12.93;;
11054;SDS011;5580;50.106;8.702;2022-10-04T02:21:35;30.53;;;12.27;;
11054;SDS011;5580;50.106;8.702;2022-10-04T02:24:01;23.27;;;11.10;;
11054;SDS011;5580;50.106;8.702;2022-10-04T02:26:27;43.03;;;11.03;;
11054;SDS011;5580;50.106;8.702;2022-10-04T02:28:53;22.60;;;11.50;;
11054;SDS011;5580;50.106;8.702;2022-10-04T02:31:20;19.67;;;10.97;;
11054;SDS011;5580;50.106;8.702;2022-10-04T02:34:05;24.47;;;11.53;;
11054;SDS011;5580;50.106;8.702;2022-10-04T02:36:31;35.07;;;11.43;;
11054;SDS011;5580;50.106;8.702;2022-10-04T02:39:00;33.10;;;12.20;;
11054;SDS011;5580;50.106;8.702;2022-10-04T02:44:02;42.60;;;11.83;;
11054;SDS011;5580;50.106;8.702;2022-10-04T02:49:03;23.70;;;11.83;;
11054;SDS011;5580;50.106;8.702;2022-10-04T02:51:42;24.37;;;11.10;;
11054;SDS011;5580;50.106;8.702;2022-10-04T02:56:51;25.27;;;10.47;;
11054;SDS011;5580;50.106;8.702;2022-10-04T02:59:19;24.23;;;10.23;;
11054;SDS011;5580;50.106;8.702;2022-10-04T03:04:16;18.83;;;11.07;;
11054;SDS011;5580;50.106;8.702;2022-10-04T03:06:45;18.50;;;11.23;;
11054;SDS011;5580;50.106;8.702;2022-10-04T03:09:11;17.70;;;11.13;;
11054;SDS011;5580;50.106;8.702;2022-10-04T03:11:39;16.80;;;10.90;;
11054;SDS011;5580;50.106;8.702;2022-10-04T03:14:07;16.83;;;10.50;;
11054;SDS011;5580;50.106;8.702;2022-10-04T03:16:38;17.27;;;10.53;;
11054;SDS011;5580;50.106;8.702;2022-10-04T03:19:07;18.73;;;10.70;;
11054;SDS011;5580;50.106;8.702;2022-10-04T03:21:34;15.93;;;10.60;;
11054;SDS011;5580;50.106;8.702;2022-10-04T03:24:03;18.60;;;10.67;;
11054;SDS011;5580;50.106;8.702;2022-10-04T03:26:44;19.07;;;11.73;;
11054;SDS011;5580;50.106;8.702;2022-10-04T03:29:13;21.40;;;12.60;;
11054;SDS011;5580;50.106;8.702;2022-10-04T03:31:43;26.27;;;12.07;;
11054;SDS011;5580;50.106;8.702;2022-10-04T03:34:15;21.60;;;11.93;;
11054;SDS011;5580;50.106;8.702;2022-10-04T03:36:50;25.37;;;10.77;;
11054;SDS011;5580;50.106;8.702;2022-10-04T03:39:21;22.40;;;10.33;;
11054;SDS011;5580;50.106;8.702;2022-10-04T03:42:10;22.20;;;9.80;;
11054;SDS011;5580;50.106;8.702;2022-10-04T03:44:42;29.07;;;10.37;;
11054;SDS011;5580;50.106;8.702;2022-10-04T03:47:09;15.53;;;9.93;;
11054;SDS011;5580;50.106;8.702;2022-10-04T03:49:38;17.80;;;9.70;;
11054;SDS011;5580;50.106;8.702;2022-10-04T03:52:06;17.57;;;10.10;;
11054;SDS011;5580;50.106;8.702;2022-10-04T03:54:39;17.90;;;9.20;;
11054;SDS011;5580;50.106;8.702;2022-10-04T03:57:05;19.97;;;9.73;;
11054;SDS011;5580;50.106;8.702;2022-10-04T03:59:31;16.17;;;9.27;;
11054;SDS011;5580;50.106;8.702;2022-10-04T04:02:03;20.23;;;10.37;;
11054;SDS011;5580;50.106;8.702;2022-10-04T04:04:53;17.83;;;10.20;;
11054;SDS011;5580;50.106;8.702;2022-10-04T04:07:39;20.80;;;10.27;;
11054;SDS011;5580;50.106;8.702;2022-10-04T04:12:56;16.60;;;10.13;;
11054;SDS011;5580;50.106;8.702;2022-10-04T04:15:29;17.10;;;9.83;;
11054;SDS011;5580;50.106;8.702;2022-10-04T04:18:01;16.27;;;9.07;;
11054;SDS011;5580;50.106;8.702;2022-10-04T04:23:11;13.50;;;8.30;;
11054;SDS011;5580;50.106;8.702;2022-10-04T04:25:49;12.83;;;7.60;;
11054;SDS011;5580;50.106;8.702;2022-10-04T04:28:32;12.97;;;7.93;;
11054;SDS011;5580;50.106;8.702;2022-10-04T04:31:03;12.87;;;7.73;;
11054;SDS011;5580;50.106;8.702;2022-10-04T04:33:35;12.87;;;8.10;;
11054;SDS011;5580;50.106;8.702;2022-10-04T04:36:08;14.63;;;8.90;;
11054;SDS011;5580;50.106;8.702;2022-10-04T04:38:36;12.93;;;7.83;;
11054;SDS011;5580;50.106;8.702;2022-10-04T04:41:21;15.80;;;8.53;;
11054;SDS011;5580;50.106;8.702;2022-10-04T04:43:49;14.70;;;9.00;;
11054;SDS011;5580;50.106;8.702;2022-10-04T04:46:17;14.70;;;8.90;;
11054;SDS011;5580;50.106;8.702;2022-10-04T04:48:43;16.90;;;9.63;;
11054;SDS011;5580;50.106;8.702;2022-10-04T04:51:11;15.87;;;9.30;;
11054;SDS011;5580;50.106;8.702;2022-10-04T04:53:44;15.40;;;8.93;;
11054;SDS011;5580;50.106;8.702;2022-10-04T04:56:11;15.70;;;9.50;;
11054;SDS011;5580;50.106;8.702;2022-10-04T04:58:43;20.93;;;8.87;;
11054;SDS011;5580;50.106;8.702;2022-10-04T05:01:25;17.63;;;9.87;;
11054;SDS011;5580;50.106;8.702;2022-10-04T05:03:59;17.80;;;9.87;;
11054;SDS011;5580;50.106;8.702;2022-10-04T05:06:26;23.20;;;11.33;;
11054;SDS011;5580;50.106;8.702;2022-10-04T05:08:54;19.20;;;11.07;;
11054;SDS011;5580;50.106;8.702;2022-10-04T05:11:20;18.93;;;10.67;;
11054;SDS011;5580;50.106;8.702;2022-10-04T05:13:55;19.03;;;11.07;;
11054;SDS011;5580;50.106;8.702;2022-10-04T05:19:08;17.33;;;10.33;;
11054;SDS011;5580;50.106;8.702;2022-10-04T05:21:44;17.07;;;10.83;;
11054;SDS011;5580;50.106;8.702;2022-10-04T05:24:25;16.40;;;10.23;;
11054;SDS011;5580;50.106;8.702;2022-10-04T05:27:02;18.90;;;10.40;;
11054;SDS011;5580;50.106;8.702;2022-10-04T05:29:33;19.20;;;10.17;;
11054;SDS011;5580;50.106;8.702;2022-10-04T05:34:47;15.53;;;9.43;;
11054;SDS011;5580;50.106;8.702;2022-10-04T05:42:44;15.83;;;9.00;;
11054;SDS011;5580;50.106;8.702;2022-10-04T05:47:44;20.83;;;11.23;;
11054;SDS011;5580;50.106;8.702;2022-10-04T05:50:14;20.17;;;11.73;;
11054;SDS011;5580;50.106;8.702;2022-10-04T05:52:48;18.17;;;11.00;;
11054;SDS011;5580;50.106;8.702;2022-10-04T05:55:24;19.63;;;11.13;;
11054;SDS011;5580;50.106;8.702;2022-10-04T06:06:23;21.40;;;12.73;;
11054;SDS011;5580;50.106;8.702;2022-10-04T06:12:09;19.93;;;11.37;;
11054;SDS011;5580;50.106;8.702;2022-10-04T06:22:42;24.00;;;14.33;;
11054;SDS011;5580;50.106;8.702;2022-10-04T06:25:12;21.63;;;13.57;;
11054;SDS011;5580;50.106;8.702;2022-10-04T06:27:47;21.00;;;12.93;;
11054;SDS011;5580;50.106;8.702;2022-10-04T06:30:18;21.80;;;12.17;;
11054;SDS011;5580;50.106;8.702;2022-10-04T06:38:25;16.90;;;11.10;;
11054;SDS011;5580;50.106;8.702;2022-10-04T06:46:47;21.63;;;12.03;;
11054;SDS011;5580;50.106;8.702;2022-10-04T06:49:27;19.70;;;11.83;;
11054;SDS011;5580;50.106;8.702;2022-10-04T06:52:12;18.37;;;11.03;;
11054;SDS011;5580;50.106;8.702;2022-10-04T06:54:53;20.20;;;10.43;;
11054;SDS011;5580;50.106;8.702;2022-10-04T07:00:28;20.03;;;11.60;;
11054;SDS011;5580;50.106;8.702;2022-10-04T07:03:10;17.33;;;11.20;;
11054;SDS011;5580;50.106;8.702;2022-10-04T07:05:38;21.00;;;11.83;;
11054;SDS011;5580;50.106;8.702;2022-10-04T07:21:32;22.70;;;13.87;;
11054;SDS011;5580;50.106;8.702;2022-10-04T07:24:04;24.10;;;14.43;;
11054;SDS011;5580;50.106;8.702;2022-10-04T07:26:45;23.70;;;14.97;;
11054;SDS011;5580;50.106;8.702;2022-10-04T07:29:18;22.60;;;14.20;;
11054;SDS011;5580;50.106;8.702;2022-10-04T07:31:52;23.00;;;14.77;;
11054;SDS011;5580;50.106;8.702;2022-10-04T07:34:37;21.77;;;13.40;;
11054;SDS011;5580;50.106;8.702;2022-10-04T07:37:24;24.97;;;14.00;;
11054;SDS011;5580;50.106;8.702;2022-10-04T07:42:46;24.40;;;14.20;;
11054;SDS011;5580;50.106;8.702;2022-10-04T07:45:20;24.07;;;13.80;;
11054;SDS011;5580;50.106;8.702;2022-10-04T07:47:49;22.20;;;13.80;;
11054;SDS011;5580;50.106;8.702;2022-10-04T07:52:47;21.20;;;12.67;;
11054;SDS011;5580;50.106;8.702;2022-10-04T07:55:20;22.33;;;12.83;;
11054;SDS011;5580;50.106;8.702;2022-10-04T07:58:06;21.90;;;12.90;;
11054;SDS011;5580;50.106;8.702;2022-10-04T08:03:23;21.63;;;12.93;;
11054;SDS011;5580;50.106;8.702;2022-10-04T08:22:50;22.70;;;13.03;;
11054;SDS011;5580;50.106;8.702;2022-10-04T08:36:41;25.53;;;13.63;;
11054;SDS011;5580;50.106;8.702;2022-10-04T08:39:16;24.27;;;14.40;;
11054;SDS011;5580;50.106;8.702;2022-10-04T08:50:20;26.97;;;15.53;;
11054;SDS011;5580;50.106;8.702;2022-10-04T08:53:20;26.37;;;15.73;;
11054;SDS011;5580;50.106;8.702;2022-10-04T08:59:05;27.27;;;16.00;;
11054;SDS011;5580;50.106;8.702;2022-10-04T09:07:11;27.10;;;14.33;;
11054;SDS011;5580;50.106;8.702;2022-10-04T09:09:55;29.87;;;15.53;;
11054;SDS011;5580;50.106;8.702;2022-10-04T09:15:27;27.47;;;15.57;;
11054;SDS011;5580;50.106;8.702;2022-10-04T09:18:19;32.43;;;14.93;;
11054;SDS011;5580;50.106;8.702;2022-10-04T09:27:58;25.80;;;15.50;;
11054;SDS011;5580;50.106;8.702;2022-10-04T09:35:54;22.00;;;14.13;;
11054;SDS011;5580;50.106;8.702;2022-10-04T09:55:28;24.87;;;13.63;;
11054;SDS011;5580;50.106;8.702;2022-10-04T09:58:34;21.47;;;13.17;;
11054;SDS011;5580;50.106;8.702;2022-10-04T10:04:31;19.27;;;12.40;;
11054;SDS011;5580;50.106;8.702;2022-10-04T10:06:50;20.77;;;12.83;;
11054;SDS011;5580;50.106;8.702;2022-10-04T10:12:27;20.27;;;11.73;;
11054;SDS011;5580;50.106;8.702;2022-10-04T10:15:23;22.10;;;11.73;;
11054;SDS011;5580;50.106;8.702;2022-10-04T10:18:26;19.47;;;11.53;;
11054;SDS011;5580;50.106;8.702;2022-10-04T10:27:18;18.70;;;10.50;;
11054;SDS011;5580;50.106;8.702;2022-10-04T10:43:30;15.87;;;9.37;;
11054;SDS011;5580;50.106;8.702;2022-10-04T10:57:28;17.97;;;8.73;;
11054;SDS011;5580;50.106;8.702;2022-10-04T11:17:16;13.67;;;7.40;;
11054;SDS011;5580;50.106;8.702;2022-10-04T11:23:05;12.53;;;7.60;;
11054;SDS011;5580;50.106;8.702;2022-10-04T11:45:26;13.10;;;6.33;;
11054;SDS011;5580;50.106;8.702;2022-10-04T11:50:59;11.47;;;6.10;;
11054;SDS011;5580;50.106;8.702;2022-10-04T11:59:55;12.47;;;5.67;;
11054;SDS011;5580;50.106;8.702;2022-10-04T12:15:54;13.27;;;6.13;;
11054;SDS011;5580;50.106;8.702;2022-10-04T12:32:47;10.10;;;5.40;;
11054;SDS011;5580;50.106;8.702;2022-10-04T12:40:34;12.30;;;5.37;;
11054;SDS011;5580;50.106;8.702;2022-10-04T12:59:52;8.27;;;5.13;;
11054;SDS011;5580;50.106;8.702;2022-10-04T13:08:17;9.57;;;4.87;;
11054;SDS011;5580;50.106;8.702;2022-10-04T13:22:32;9.80;;;4.90;;
11054;SDS011;5580;50.106;8.702;2022-10-04T13:27:58;10.13;;;4.67;;
11054;SDS011;5580;50.106;8.702;2022-10-04T13:30:36;10.07;;;4.90;;
11054;SDS011;5580;50.106;8.702;2022-10-04T13:43:59;8.13;;;4.70;;
11054;SDS011;5580;50.106;8.702;2022-10-04T13:46:58;10.00;;;5.10;;
11054;SDS011;5580;50.106;8.702;2022-10-04T13:59:03;9.27;;;4.70;;
11054;SDS011;5580;50.106;8.702;2022-10-04T14:10:22;9.50;;;4.70;;
11054;SDS011;5580;50.106;8.702;2022-10-04T14:22:17;7.40;;;4.30;;
11054;SDS011;5580;50.106;8.702;2022-10-04T14:30:22;6.63;;;4.37;;
11054;SDS011;5580;50.106;8.702;2022-10-04T14:50:05;7.97;;;4.53;;
11054;SDS011;5580;50.106;8.702;2022-10-04T14:52:59;10.47;;;4.50;;
11054;SDS011;5580;50.106;8.702;2022-10-04T15:01:26;9.63;;;4.77;;
11054;SDS011;5580;50.106;8.702;2022-10-04T15:04:14;10.03;;;4.90;;
11054;SDS011;5580;50.106;8.702;2022-10-04T15:06:59;8.77;;;4.50;;
11054;SDS011;5580;50.106;8.702;2022-10-04T15:09:36;8.83;;;4.57;;
11054;SDS011;5580;50.106;8.702;2022-10-04T15:17:39;7.97;;;4.50;;
11054;SDS011;5580;50.106;8.702;2022-10-04T15:20:27;7.23;;;4.37;;
11054;SDS011;5580;50.106;8.702;2022-10-04T15:22:55;7.27;;;4.13;;
11054;SDS011;5580;50.106;8.702;2022-10-04T15:25:40;11.47;;;4.83;;
11054;SDS011;5580;50.106;8.702;2022-10-04T15:31:59;8.30;;;4.47;;
11054;SDS011;5580;50.106;8.702;2022-10-04T15:34:20;7.47;;;4.10;;
11054;SDS011;5580;50.106;8.702;2022-10-04T15:42:22;7.40;;;4.40;;
11054;SDS011;5580;50.106;8.702;2022-10-04T16:05:13;10.70;;;4.83;;
11054;SDS011;5580;50.106;8.702;2022-10-04T16:07:56;8.83;;;4.80;;
11054;SDS011;5580;50.106;8.702;2022-10-04T16:16:15;9.20;;;4.70;;
11054;SDS011;5580;50.106;8.702;2022-10-04T16:19:09;9.47;;;5.10;;
11054;SDS011;5580;50.106;8.702;2022-10-04T16:21:47;7.67;;;4.80;;
11054;SDS011;5580;50.106;8.702;2022-10-04T16:31:40;11.20;;;5.13;;
11054;SDS011;5580;50.106;8.702;2022-10-04T16:36:52;6.70;;;4.50;;
11054;SDS011;5580;50.106;8.702;2022-10-04T16:39:31;10.77;;;5.07;;
11054;SDS011;5580;50.106;8.702;2022-10-04T16:42:29;9.93;;;5.10;;
11054;SDS011;5580;50.106;8.702;2022-10-04T16:47:37;11.00;;;5.40;;
11054;SDS011;5580;50.106;8.702;2022-10-04T16:53:30;10.07;;;5.80;;
11054;SDS011;5580;50.106;8.702;2022-10-04T16:56:13;11.90;;;6.50;;
11054;SDS011;5580;50.106;8.702;2022-10-04T17:01:41;11.30;;;5.60;;
11054;SDS011;5580;50.106;8.702;2022-10-04T17:10:01;10.37;;;5.80;;
11054;SDS011;5580;50.106;8.702;2022-10-04T17:18:12;11.43;;;5.90;;
11054;SDS011;5580;50.106;8.702;2022-10-04T17:20:53;10.03;;;5.93;;
11054;SDS011;5580;50.106;8.702;2022-10-04T17:34:56;14.63;;;8.40;;
11054;SDS011;5580;50.106;8.702;2022-10-04T17:43:18;35.93;;;19.77;;
11054;SDS011;5580;50.106;8.702;2022-10-04T17:45:51;28.73;;;19.87;;
11054;SDS011;5580;50.106;8.702;2022-10-04T17:48:23;24.03;;;14.30;;
11054;SDS011;5580;50.106;8.702;2022-10-04T17:51:28;21.33;;;12.83;;
11054;SDS011;5580;50.106;8.702;2022-10-04T17:54:17;18.90;;;11.23;;
11054;SDS011;5580;50.106;8.702;2022-10-04T17:59:45;17.00;;;10.30;;
11054;SDS011;5580;50.106;8.702;2022-10-04T18:02:16;15.80;;;9.87;;
11054;SDS011;5580;50.106;8.702;2022-10-04T18:04:57;17.43;;;9.57;;
11054;SDS011;5580;50.106;8.702;2022-10-04T18:07:43;17.30;;;10.20;;
11054;SDS011;5580;50.106;8.702;2022-10-04T18:15:33;18.73;;;11.20;;
11054;SDS011;5580;50.106;8.702;2022-10-04T18:18:36;16.53;;;10.57;;
11054;SDS011;5580;50.106;8.702;2022-10-04T18:21:06;19.67;;;10.70;;
11054;SDS011;5580;50.106;8.702;2022-10-04T18:23:54;21.40;;;10.20;;
11054;SDS011;5580;50.106;8.702;2022-10-04T18:26:30;18.47;;;10.80;;
11054;SDS011;5580;50.106;8.702;2022-10-04T18:28:58;18.70;;;10.00;;
11054;SDS011;5580;50.106;8.702;2022-10-04T18:33:53;16.87;;;10.53;;
11054;SDS011;5580;50.106;8.702;2022-10-04T18:36:21;17.13;;;10.60;;
11054;SDS011;5580;50.106;8.702;2022-10-04T18:38:59;21.50;;;10.67;;
11054;SDS011;5580;50.106;8.702;2022-10-04T18:41:52;19.67;;;10.50;;
11054;SDS011;5580;50.106;8.702;2022-10-04T18:44:42;18.53;;;10.80;;
11054;SDS011;5580;50.106;8.702;2022-10-04T18:47:14;21.07;;;11.00;;
11054;SDS011;5580;50.106;8.702;2022-10-04T18:49:49;18.90;;;10.97;;
11054;SDS011;5580;50.106;8.702;2022-10-04T19:04:33;16.97;;;10.53;;
11054;SDS011;5580;50.106;8.702;2022-10-04T19:07:33;18.97;;;10.90;;
11054;SDS011;5580;50.106;8.702;2022-10-04T19:15:45;16.87;;;10.30;;
11054;SDS011;5580;50.106;8.702;2022-10-04T19:21:27;18.60;;;11.00;;
11054;SDS011;5580;50.106;8.702;2022-10-04T19:26:56;17.93;;;10.73;;
11054;SDS011;5580;50.106;8.702;2022-10-04T19:51:00;19.03;;;10.83;;
11054;SDS011;5580;50.106;8.702;2022-10-04T19:53:34;18.70;;;11.60;;
11054;SDS011;5580;50.106;8.702;2022-10-04T19:56:06;22.00;;;11.37;;
11054;SDS011;5580;50.106;8.702;2022-10-04T19:58:42;19.43;;;12.03;;
11054;SDS011;5580;50.106;8.702;2022-10-04T20:01:28;19.50;;;11.47;;
11054;SDS011;5580;50.106;8.702;2022-10-04T20:03:55;18.43;;;11.93;;
11054;SDS011;5580;50.106;8.702;2022-10-04T20:06:49;18.57;;;11.57;;
11054;SDS011;5580;50.106;8.702;2022-10-04T20:12:31;31.03;;;18.37;;
11054;SDS011;5580;50.106;8.702;2022-10-04T20:17:45;30.97;;;19.20;;
11054;SDS011;5580;50.106;8.702;2022-10-04T20:20:14;31.33;;;19.33;;
11054;SDS011;5580;50.106;8.702;2022-10-04T20:23:01;31.67;;;19.57;;
11054;SDS011;5580;50.106;8.702;2022-10-04T20:25:57;30.47;;;20.20;;
11054;SDS011;5580;50.106;8.702;2022-10-04T20:30:53;28.63;;;19.37;;
11054;SDS011;5580;50.106;8.702;2022-10-04T20:36:01;24.60;;;16.20;;
11054;SDS011;5580;50.106;8.702;2022-10-04T20:49:52;17.67;;;9.93;;
11054;SDS011;5580;50.106;8.702;2022-10-04T20:52:23;17.30;;;10.10;;
11054;SDS011;5580;50.106;8.702;2022-10-04T20:54:52;20.80;;;10.33;;
11054;SDS011;5580;50.106;8.702;2022-10-04T20:57:18;20.93;;;10.80;;
11054;SDS011;5580;50.106;8.702;2022-10-04T20:59:48;18.50;;;10.50;;
11054;SDS011;5580;50.106;8.702;2022-10-04T21:02:18;18.70;;;10.43;;
11054;SDS011;5580;50.106;8.702;2022-10-04T21:04:45;16.70;;;10.20;;
11054;SDS011;5580;50.106;8.702;2022-10-04T21:07:21;17.43;;;9.73;;
11054;SDS011;5580;50.106;8.702;2022-10-04T21:09:48;17.63;;;9.20;;
11054;SDS011;5580;50.106;8.702;2022-10-04T21:12:26;19.00;;;10.73;;
11054;SDS011;5580;50.106;8.702;2022-10-04T21:17:42;17.83;;;10.10;;
11054;SDS011;5580;50.106;8.702;2022-10-04T21:20:41;19.77;;;11.03;;
11054;SDS011;5580;50.106;8.702;2022-10-04T21:23:08;17.17;;;10.07;;
11054;SDS011;5580;50.106;8.702;2022-10-04T21:28:53;21.87;;;10.27;;
11054;SDS011;5580;50.106;8.702;2022-10-04T21:31:21;16.87;;;10.00;;
11054;SDS011;5580;50.106;8.702;2022-10-04T21:33:47;17.33;;;9.97;;
11054;SDS011;5580;50.106;8.702;2022-10-04T21:36:12;18.30;;;10.33;;
11054;SDS011;5580;50.106;8.702;2022-10-04T21:38:38;17.00;;;10.07;;
11054;SDS011;5580;50.106;8.702;2022-10-04T21:41:04;18.60;;;10.37;;
11054;SDS011;5580;50.106;8.702;2022-10-04T21:43:29;17.23;;;9.90;;
11054;SDS011;5580;50.106;8.702;2022-10-04T21:45:55;14.93;;;9.53;;
11054;SDS011;5580;50.106;8.702;2022-10-04T21:48:21;21.87;;;9.97;;
11054;SDS011;5580;50.106;8.702;2022-10-04T21:50:48;19.20;;;9.57;;
11054;SDS011;5580;50.106;8.702;2022-10-04T21:53:14;16.23;;;9.43;;
11054;SDS011;5580;50.106;8.702;2022-10-04T21:55:40;19.77;;;10.27;;
11054;SDS011;5580;50.106;8.702;2022-10-04T21:58:05;17.00;;;10.20;;
11054;SDS011;5580;50.106;8.702;2022-10-04T22:00:31;17.53;;;9.77;;
11054;SDS011;5580;50.106;8.702;2022-10-04T22:02:57;17.40;;;9.63;;
11054;SDS011;5580;50.106;8.702;2022-10-04T22:05:23;21.10;;;9.90;;
11054;SDS011;5580;50.106;8.702;2022-10-04T22:07:48;15.47;;;9.43;;
11054;SDS011;5580;50.106;8.702;2022-10-04T22:10:14;18.27;;;10.17;;
11054;SDS011;5580;50.106;8.702;2022-10-04T22:12:40;17.27;;;9.97;;
11054;SDS011;5580;50.106;8.702;2022-10-04T22:15:05;18.17;;;9.90;;
11054;SDS011;5580;50.106;8.702;2022-10-04T22:17:31;16.17;;;10.20;;
11054;SDS011;5580;50.106;8.702;2022-10-04T22:19:57;21.93;;;10.57;;
11054;SDS011;5580;50.106;8.702;2022-10-04T22:22:23;17.57;;;10.43;;
11054;SDS011;5580;50.106;8.702;2022-10-04T22:24:48;18.10;;;10.40;;
11054;SDS011;5580;50.106;8.702;2022-10-04T22:27:14;19.67;;;10.53;;
11054;SDS011;5580;50.106;8.702;2022-10-04T22:29:42;15.47;;;9.67;;
11054;SDS011;5580;50.106;8.702;2022-10-04T22:32:14;18.77;;;9.40;;
11054;SDS011;5580;50.106;8.702;2022-10-04T22:34:49;18.93;;;9.53;;
11054;SDS011;5580;50.106;8.702;2022-10-04T22:37:17;15.63;;;9.57;;
11054;SDS011;5580;50.106;8.702;2022-10-04T22:39:48;14.90;;;9.23;;
11054;SDS011;5580;50.106;8.702;2022-10-04T22:42:15;16.60;;;9.57;;
11054;SDS011;5580;50.106;8.702;2022-10-04T22:44:41;16.73;;;9.03;;
11054;SDS011;5580;50.106;8.702;2022-10-04T22:47:13;19.00;;;9.37;;
11054;SDS011;5580;50.106;8.702;2022-10-04T22:49:43;18.80;;;10.10;;
11054;SDS011;5580;50.106;8.702;2022-10-04T22:52:17;15.37;;;9.40;;
11054;SDS011;5580;50.106;8.702;2022-10-04T22:54:46;14.93;;;9.40;;
11054;SDS011;5580;50.106;8.702;2022-10-04T22:57:13;18.50;;;9.30;;
11054;SDS011;5580;50.106;8.702;2022-10-04T22:59:47;18.17;;;9.67;;
11054;SDS011;5580;50.106;8.702;2022-10-04T23:02:21;17.40;;;10.03;;
11054;SDS011;5580;50.106;8.702;2022-10-04T23:05:32;19.63;;;9.97;;
11054;SDS011;5580;50.106;8.702;2022-10-04T23:07:44;17.23;;;9.63;;
11054;SDS011;5580;50.106;8.702;2022-10-04T23:10:10;14.00;;;9.07;;
11054;SDS011;5580;50.106;8.702;2022-10-04T23:12:37;20.07;;;10.07;;
11054;SDS011;5580;50.106;8.702;2022-10-04T23:15:05;16.07;;;10.27;;
11054;SDS011;5580;50.106;8.702;2022-10-04T23:17:35;16.97;;;9.30;;
11054;SDS011;5580;50.106;8.702;2022-10-04T23:20:11;17.07;;;9.70;;
11054;SDS011;5580;50.106;8.702;2022-10-04T23:22:38;19.47;;;10.20;;
11054;SDS011;5580;50.106;8.702;2022-10-04T23:25:13;17.90;;;9.77;;
11054;SDS011;5580;50.106;8.702;2022-10-04T23:27:45;16.87;;;10.27;;
11054;SDS011;5580;50.106;8.702;2022-10-04T23:30:12;19.93;;;10.10;;
11054;SDS011;5580;50.106;8.702;2022-10-04T23:32:44;16.87;;;10.50;;
11054;SDS011;5580;50.106;8.702;2022-10-04T23:35:18;22.53;;;10.87;;
11054;SDS011;5580;50.106;8.702;2022-10-04T23:37:47;17.47;;;10.10;;
11054;SDS011;5580;50.106;8.702;2022-10-04T23:40:14;15.93;;;10.23;;
11054;SDS011;5580;50.106;8.702;2022-10-04T23:42:42;17.73;;;10.10;;
11054;SDS011;5580;50.106;8.702;2022-10-04T23:45:17;16.63;;;10.37;;
11054;SDS011;5580;50.106;8.702;2022-10-04T23:47:47;19.83;;;9.77;;
11054;SDS011;5580;50.106;8.702;2022-10-04T23:50:17;17.53;;;10.40;;
11054;SDS011;5580;50.106;8.702;2022-10-04T23:52:49;16.83;;;9.93;;
11054;SDS011;5580;50.106;8.702;2022-10-04T23:55:21;17.60;;;10.23;;
11054;SDS011;5580;50.106;8.702;2022-10-04T23:57:48;17.20;;;9.77;;
